sensor_id;sensor_type;location;lat;lon;timestamp;temperature;humidity
30097;DHT22;16915;51.466;3.610;2023-07-29T00:01:27;17.00;99.90
30097;DHT22;16915;51.466;3.610;2023-07-29T00:03:52;17.00;99.90
30097;DHT22;16915;51.466;3.610;2023-07-29T00:06:18;17.00;99.90
30097;DHT22;16915;51.466;3.610;2023-07-29T00:08:43;17.00;99.90
30097;DHT22;16915;51.466;3.610;2023-07-29T00:11:09;17.00;99.90
30097;DHT22;16915;51.466;3.610;2023-07-29T00:13:35;17.00;99.90
30097;DHT22;16915;51.466;3.610;2023-07-29T00:16:00;17.00;99.90
30097;DHT22;16915;51.466;3.610;2023-07-29T00:18:26;17.00;99.90
30097;DHT22;16915;51.466;3.610;2023-07-29T00:20:52;16.90;99.90
30097;DHT22;16915;51.466;3.610;2023-07-29T00:23:18;16.90;99.90
30097;DHT22;16915;51.466;3.610;2023-07-29T00:25:44;16.90;99.90
30097;DHT22;16915;51.466;3.610;2023-07-29T00:28:11;16.90;99.90
30097;DHT22;16915;51.466;3.610;2023-07-29T00:30:36;16.90;99.90
30097;DHT22;16915;51.466;3.610;2023-07-29T00:33:02;16.90;99.90
30097;DHT22;16915;51.466;3.610;2023-07-29T00:35:28;16.90;99.90
30097;DHT22;16915;51.466;3.610;2023-07-29T00:37:53;16.90;99.90
30097;DHT22;16915;51.466;3.610;2023-07-29T00:40:20;16.90;99.90
30097;DHT22;16915;51.466;3.610;2023-07-29T00:42:46;16.90;99.90
30097;DHT22;16915;51.466;3.610;2023-07-29T00:45:12;16.90;99.90
30097;DHT22;16915;51.466;3.610;2023-07-29T00:47:39;16.90;99.90
30097;DHT22;16915;51.466;3.610;2023-07-29T00:50:06;17.00;99.90
30097;DHT22;16915;51.466;3.610;2023-07-29T00:52:32;17.00;99.90
30097;DHT22;16915;51.466;3.610;2023-07-29T00:54:58;16.90;99.90
30097;DHT22;16915;51.466;3.610;2023-07-29T00:57:24;17.00;99.90
30097;DHT22;16915;51.466;3.610;2023-07-29T00:59:51;16.90;99.90
30097;DHT22;16915;51.466;3.610;2023-07-29T01:02:16;16.90;99.90
30097;DHT22;16915;51.466;3.610;2023-07-29T01:04:42;16.90;99.90
30097;DHT22;16915;51.466;3.610;2023-07-29T01:07:23;16.80;99.90
30097;DHT22;16915;51.466;3.610;2023-07-29T01:15:01;16.80;99.90
30097;DHT22;16915;51.466;3.610;2023-07-29T01:17:43;16.80;99.90
30097;DHT22;16915;51.466;3.610;2023-07-29T01:20:19;16.70;99.90
30097;DHT22;16915;51.466;3.610;2023-07-29T01:22:46;16.80;99.90
30097;DHT22;16915;51.466;3.610;2023-07-29T01:25:12;16.80;99.90
30097;DHT22;16915;51.466;3.610;2023-07-29T01:27:38;16.80;99.90
30097;DHT22;16915;51.466;3.610;2023-07-29T01:30:06;16.80;99.90
30097;DHT22;16915;51.466;3.610;2023-07-29T01:32:54;16.80;99.90
30097;DHT22;16915;51.466;3.610;2023-07-29T01:35:43;16.80;99.90
30097;DHT22;16915;51.466;3.610;2023-07-29T01:38:17;16.70;99.90
30097;DHT22;16915;51.466;3.610;2023-07-29T01:40:44;16.70;99.90
30097;DHT22;16915;51.466;3.610;2023-07-29T01:43:11;16.70;99.90
30097;DHT22;16915;51.466;3.610;2023-07-29T01:45:37;16.70;99.90
30097;DHT22;16915;51.466;3.610;2023-07-29T01:48:07;16.60;99.90
30097;DHT22;16915;51.466;3.610;2023-07-29T01:50:33;16.60;99.90
30097;DHT22;16915;51.466;3.610;2023-07-29T01:52:59;16.60;99.90
30097;DHT22;16915;51.466;3.610;2023-07-29T01:55:25;16.60;99.90
30097;DHT22;16915;51.466;3.610;2023-07-29T01:57:50;16.60;99.90
30097;DHT22;16915;51.466;3.610;2023-07-29T02:00:20;16.60;99.90
30097;DHT22;16915;51.466;3.610;2023-07-29T02:02:49;16.60;99.90
30097;DHT22;16915;51.466;3.610;2023-07-29T02:05:14;16.60;99.90
30097;DHT22;16915;51.466;3.610;2023-07-29T02:07:40;16.60;99.90
30097;DHT22;16915;51.466;3.610;2023-07-29T02:10:06;16.60;99.90
30097;DHT22;16915;51.466;3.610;2023-07-29T02:12:32;16.60;99.90
30097;DHT22;16915;51.466;3.610;2023-07-29T02:14:57;16.60;99.90
30097;DHT22;16915;51.466;3.610;2023-07-29T02:17:23;16.60;99.90
30097;DHT22;16915;51.466;3.610;2023-07-29T02:19:48;16.60;99.90
30097;DHT22;16915;51.466;3.610;2023-07-29T02:22:16;16.50;99.90
30097;DHT22;16915;51.466;3.610;2023-07-29T02:24:42;16.50;99.90
30097;DHT22;16915;51.466;3.610;2023-07-29T02:27:08;16.60;99.90
30097;DHT22;16915;51.466;3.610;2023-07-29T02:29:33;16.50;99.90
30097;DHT22;16915;51.466;3.610;2023-07-29T02:32:03;16.50;99.90
30097;DHT22;16915;51.466;3.610;2023-07-29T02:34:29;16.50;99.90
30097;DHT22;16915;51.466;3.610;2023-07-29T02:36:54;16.40;99.90
30097;DHT22;16915;51.466;3.610;2023-07-29T02:39:20;16.40;99.90
30097;DHT22;16915;51.466;3.610;2023-07-29T02:41:46;16.50;99.90
30097;DHT22;16915;51.466;3.610;2023-07-29T02:44:11;16.50;99.90
30097;DHT22;16915;51.466;3.610;2023-07-29T02:46:37;16.40;99.90
30097;DHT22;16915;51.466;3.610;2023-07-29T02:49:03;16.40;99.90
30097;DHT22;16915;51.466;3.610;2023-07-29T02:51:30;16.40;99.90
30097;DHT22;16915;51.466;3.610;2023-07-29T02:53:55;16.30;99.90
30097;DHT22;16915;51.466;3.610;2023-07-29T02:56:21;16.30;99.90
30097;DHT22;16915;51.466;3.610;2023-07-29T02:58:47;16.30;99.90
30097;DHT22;16915;51.466;3.610;2023-07-29T03:01:13;16.30;99.90
30097;DHT22;16915;51.466;3.610;2023-07-29T03:03:39;16.30;99.90
30097;DHT22;16915;51.466;3.610;2023-07-29T03:06:06;16.30;99.90
30097;DHT22;16915;51.466;3.610;2023-07-29T03:08:33;16.30;99.90
30097;DHT22;16915;51.466;3.610;2023-07-29T03:11:04;16.30;99.90
30097;DHT22;16915;51.466;3.610;2023-07-29T03:13:30;16.30;99.90
30097;DHT22;16915;51.466;3.610;2023-07-29T03:16:05;16.30;99.90
30097;DHT22;16915;51.466;3.610;2023-07-29T03:18:30;16.30;99.90
30097;DHT22;16915;51.466;3.610;2023-07-29T03:20:56;16.30;99.90
30097;DHT22;16915;51.466;3.610;2023-07-29T03:23:21;16.40;99.90
30097;DHT22;16915;51.466;3.610;2023-07-29T03:25:50;16.40;99.90
30097;DHT22;16915;51.466;3.610;2023-07-29T03:28:23;16.40;99.90
30097;DHT22;16915;51.466;3.610;2023-07-29T03:30:49;16.50;99.90
30097;DHT22;16915;51.466;3.610;2023-07-29T03:33:14;16.50;99.90
30097;DHT22;16915;51.466;3.610;2023-07-29T03:35:40;16.50;99.90
30097;DHT22;16915;51.466;3.610;2023-07-29T03:38:05;16.50;99.90
30097;DHT22;16915;51.466;3.610;2023-07-29T03:40:31;16.50;99.90
30097;DHT22;16915;51.466;3.610;2023-07-29T03:42:56;16.50;99.90
30097;DHT22;16915;51.466;3.610;2023-07-29T03:45:22;16.50;99.90
30097;DHT22;16915;51.466;3.610;2023-07-29T03:47:48;16.50;99.90
30097;DHT22;16915;51.466;3.610;2023-07-29T03:50:13;16.50;99.90
30097;DHT22;16915;51.466;3.610;2023-07-29T03:52:39;16.60;99.90
30097;DHT22;16915;51.466;3.610;2023-07-29T03:55:04;16.70;99.90
30097;DHT22;16915;51.466;3.610;2023-07-29T03:57:30;16.70;99.90
30097;DHT22;16915;51.466;3.610;2023-07-29T03:59:56;16.80;99.90
30097;DHT22;16915;51.466;3.610;2023-07-29T04:02:22;16.90;99.90
30097;DHT22;16915;51.466;3.610;2023-07-29T04:04:47;16.90;99.90
30097;DHT22;16915;51.466;3.610;2023-07-29T04:07:13;16.90;99.90
30097;DHT22;16915;51.466;3.610;2023-07-29T04:09:39;17.00;99.90
30097;DHT22;16915;51.466;3.610;2023-07-29T04:12:05;17.00;99.90
30097;DHT22;16915;51.466;3.610;2023-07-29T04:14:31;17.00;99.90
30097;DHT22;16915;51.466;3.610;2023-07-29T04:16:57;17.00;99.90
30097;DHT22;16915;51.466;3.610;2023-07-29T04:19:23;17.00;99.90
30097;DHT22;16915;51.466;3.610;2023-07-29T04:21:48;16.90;99.90
30097;DHT22;16915;51.466;3.610;2023-07-29T04:24:16;16.90;99.90
30097;DHT22;16915;51.466;3.610;2023-07-29T04:26:41;16.80;99.90
30097;DHT22;16915;51.466;3.610;2023-07-29T04:29:07;16.80;99.90
30097;DHT22;16915;51.466;3.610;2023-07-29T04:31:33;16.70;99.90
30097;DHT22;16915;51.466;3.610;2023-07-29T04:33:58;16.70;99.90
30097;DHT22;16915;51.466;3.610;2023-07-29T04:36:24;16.80;99.90
30097;DHT22;16915;51.466;3.610;2023-07-29T04:38:49;16.70;99.90
30097;DHT22;16915;51.466;3.610;2023-07-29T04:41:15;16.80;99.90
30097;DHT22;16915;51.466;3.610;2023-07-29T04:43:40;16.80;99.90
30097;DHT22;16915;51.466;3.610;2023-07-29T04:46:07;16.80;99.90
30097;DHT22;16915;51.466;3.610;2023-07-29T04:48:34;16.80;99.90
30097;DHT22;16915;51.466;3.610;2023-07-29T04:50:59;16.80;99.90
30097;DHT22;16915;51.466;3.610;2023-07-29T04:53:25;16.80;99.90
30097;DHT22;16915;51.466;3.610;2023-07-29T04:55:50;16.80;99.90
30097;DHT22;16915;51.466;3.610;2023-07-29T04:58:16;16.90;99.90
30097;DHT22;16915;51.466;3.610;2023-07-29T05:00:41;16.90;99.90
30097;DHT22;16915;51.466;3.610;2023-07-29T05:03:07;17.00;99.90
30097;DHT22;16915;51.466;3.610;2023-07-29T05:05:33;17.00;99.90
30097;DHT22;16915;51.466;3.610;2023-07-29T05:07:58;17.10;99.90
30097;DHT22;16915;51.466;3.610;2023-07-29T05:10:24;17.20;99.90
30097;DHT22;16915;51.466;3.610;2023-07-29T05:12:50;17.20;99.90
30097;DHT22;16915;51.466;3.610;2023-07-29T05:15:15;17.20;99.90
30097;DHT22;16915;51.466;3.610;2023-07-29T05:17:41;17.20;99.90
30097;DHT22;16915;51.466;3.610;2023-07-29T05:20:07;17.30;99.90
30097;DHT22;16915;51.466;3.610;2023-07-29T05:22:33;17.30;99.90
30097;DHT22;16915;51.466;3.610;2023-07-29T05:24:58;17.50;99.90
30097;DHT22;16915;51.466;3.610;2023-07-29T05:27:24;17.60;99.90
30097;DHT22;16915;51.466;3.610;2023-07-29T05:29:50;17.70;99.90
30097;DHT22;16915;51.466;3.610;2023-07-29T05:32:15;17.70;99.90
30097;DHT22;16915;51.466;3.610;2023-07-29T05:34:41;17.80;99.90
30097;DHT22;16915;51.466;3.610;2023-07-29T05:37:06;17.70;99.90
30097;DHT22;16915;51.466;3.610;2023-07-29T05:39:32;17.80;99.90
30097;DHT22;16915;51.466;3.610;2023-07-29T05:41:58;17.90;99.90
30097;DHT22;16915;51.466;3.610;2023-07-29T05:44:24;17.90;99.90
30097;DHT22;16915;51.466;3.610;2023-07-29T05:46:49;18.00;99.90
30097;DHT22;16915;51.466;3.610;2023-07-29T05:49:15;18.00;99.90
30097;DHT22;16915;51.466;3.610;2023-07-29T05:51:41;18.10;99.90
30097;DHT22;16915;51.466;3.610;2023-07-29T05:54:06;18.30;99.90
30097;DHT22;16915;51.466;3.610;2023-07-29T05:56:32;18.30;99.90
30097;DHT22;16915;51.466;3.610;2023-07-29T05:58:57;18.20;99.90
30097;DHT22;16915;51.466;3.610;2023-07-29T06:01:23;18.20;99.90
30097;DHT22;16915;51.466;3.610;2023-07-29T06:03:49;18.30;99.90
30097;DHT22;16915;51.466;3.610;2023-07-29T06:06:15;18.40;99.90
30097;DHT22;16915;51.466;3.610;2023-07-29T06:08:41;18.50;99.90
30097;DHT22;16915;51.466;3.610;2023-07-29T06:11:06;18.60;99.90
30097;DHT22;16915;51.466;3.610;2023-07-29T06:13:32;18.70;99.90
30097;DHT22;16915;51.466;3.610;2023-07-29T06:15:58;18.80;99.90
30097;DHT22;16915;51.466;3.610;2023-07-29T06:18:24;18.70;99.90
30097;DHT22;16915;51.466;3.610;2023-07-29T06:20:50;18.50;99.90
30097;DHT22;16915;51.466;3.610;2023-07-29T06:23:16;18.30;99.90
30097;DHT22;16915;51.466;3.610;2023-07-29T06:25:42;18.10;99.90
30097;DHT22;16915;51.466;3.610;2023-07-29T06:28:09;18.00;99.90
30097;DHT22;16915;51.466;3.610;2023-07-29T06:30:34;18.10;99.90
30097;DHT22;16915;51.466;3.610;2023-07-29T06:33:00;18.30;99.90
30097;DHT22;16915;51.466;3.610;2023-07-29T06:35:26;18.40;99.90
30097;DHT22;16915;51.466;3.610;2023-07-29T06:37:51;18.60;99.90
30097;DHT22;16915;51.466;3.610;2023-07-29T06:40:17;18.70;99.90
30097;DHT22;16915;51.466;3.610;2023-07-29T06:42:43;18.80;99.90
30097;DHT22;16915;51.466;3.610;2023-07-29T06:45:09;19.00;99.90
30097;DHT22;16915;51.466;3.610;2023-07-29T06:47:35;19.10;99.90
30097;DHT22;16915;51.466;3.610;2023-07-29T06:50:01;19.10;99.90
30097;DHT22;16915;51.466;3.610;2023-07-29T06:52:26;19.00;99.90
30097;DHT22;16915;51.466;3.610;2023-07-29T06:54:52;18.90;99.90
30097;DHT22;16915;51.466;3.610;2023-07-29T06:57:17;19.00;99.90
30097;DHT22;16915;51.466;3.610;2023-07-29T06:59:43;19.00;99.90
30097;DHT22;16915;51.466;3.610;2023-07-29T07:02:08;19.00;99.90
30097;DHT22;16915;51.466;3.610;2023-07-29T07:04:34;18.90;99.90
30097;DHT22;16915;51.466;3.610;2023-07-29T07:06:59;18.80;99.90
30097;DHT22;16915;51.466;3.610;2023-07-29T07:09:26;18.80;99.90
30097;DHT22;16915;51.466;3.610;2023-07-29T07:11:51;18.70;99.90
30097;DHT22;16915;51.466;3.610;2023-07-29T07:14:17;18.70;99.90
30097;DHT22;16915;51.466;3.610;2023-07-29T07:16:43;18.80;99.90
30097;DHT22;16915;51.466;3.610;2023-07-29T07:19:10;18.90;99.90
30097;DHT22;16915;51.466;3.610;2023-07-29T07:21:36;19.30;99.90
30097;DHT22;16915;51.466;3.610;2023-07-29T07:24:01;19.50;99.90
30097;DHT22;16915;51.466;3.610;2023-07-29T07:26:27;19.70;99.90
30097;DHT22;16915;51.466;3.610;2023-07-29T07:28:53;20.00;99.90
30097;DHT22;16915;51.466;3.610;2023-07-29T07:31:18;20.40;99.90
30097;DHT22;16915;51.466;3.610;2023-07-29T07:33:44;20.70;99.90
30097;DHT22;16915;51.466;3.610;2023-07-29T07:36:10;20.80;99.90
30097;DHT22;16915;51.466;3.610;2023-07-29T07:38:35;20.70;99.90
30097;DHT22;16915;51.466;3.610;2023-07-29T07:41:02;20.80;99.90
30097;DHT22;16915;51.466;3.610;2023-07-29T07:43:27;20.80;99.90
30097;DHT22;16915;51.466;3.610;2023-07-29T07:46:00;20.60;99.90
30097;DHT22;16915;51.466;3.610;2023-07-29T07:48:27;20.60;99.90
30097;DHT22;16915;51.466;3.610;2023-07-29T07:50:52;20.60;99.90
30097;DHT22;16915;51.466;3.610;2023-07-29T07:53:18;20.50;99.90
30097;DHT22;16915;51.466;3.610;2023-07-29T07:55:45;20.60;99.90
30097;DHT22;16915;51.466;3.610;2023-07-29T07:58:10;20.70;99.90
30097;DHT22;16915;51.466;3.610;2023-07-29T08:00:36;20.80;99.90
30097;DHT22;16915;51.466;3.610;2023-07-29T08:03:02;21.00;99.90
30097;DHT22;16915;51.466;3.610;2023-07-29T08:05:27;21.00;99.90
30097;DHT22;16915;51.466;3.610;2023-07-29T08:07:53;21.00;99.90
30097;DHT22;16915;51.466;3.610;2023-07-29T08:10:19;20.90;99.90
30097;DHT22;16915;51.466;3.610;2023-07-29T08:12:44;20.80;99.90
30097;DHT22;16915;51.466;3.610;2023-07-29T08:15:10;20.70;99.90
30097;DHT22;16915;51.466;3.610;2023-07-29T08:17:35;20.60;99.90
30097;DHT22;16915;51.466;3.610;2023-07-29T08:20:01;20.50;99.90
30097;DHT22;16915;51.466;3.610;2023-07-29T08:22:27;20.20;99.90
30097;DHT22;16915;51.466;3.610;2023-07-29T08:24:52;20.20;99.90
30097;DHT22;16915;51.466;3.610;2023-07-29T08:27:18;20.40;99.90
30097;DHT22;16915;51.466;3.610;2023-07-29T08:29:43;20.50;99.90
30097;DHT22;16915;51.466;3.610;2023-07-29T08:32:09;20.70;99.90
30097;DHT22;16915;51.466;3.610;2023-07-29T08:34:35;20.90;99.90
30097;DHT22;16915;51.466;3.610;2023-07-29T08:37:01;21.20;99.90
30097;DHT22;16915;51.466;3.610;2023-07-29T08:39:27;21.20;99.90
30097;DHT22;16915;51.466;3.610;2023-07-29T08:42:08;21.10;99.90
30097;DHT22;16915;51.466;3.610;2023-07-29T08:44:41;21.00;99.90
30097;DHT22;16915;51.466;3.610;2023-07-29T08:47:07;20.90;99.90
30097;DHT22;16915;51.466;3.610;2023-07-29T08:49:33;20.90;99.90
30097;DHT22;16915;51.466;3.610;2023-07-29T08:51:59;20.90;99.90
30097;DHT22;16915;51.466;3.610;2023-07-29T08:54:25;20.80;99.90
30097;DHT22;16915;51.466;3.610;2023-07-29T08:56:51;20.70;99.90
30097;DHT22;16915;51.466;3.610;2023-07-29T08:59:17;20.50;99.90
30097;DHT22;16915;51.466;3.610;2023-07-29T09:01:44;20.20;99.90
30097;DHT22;16915;51.466;3.610;2023-07-29T09:04:10;20.00;99.90
30097;DHT22;16915;51.466;3.610;2023-07-29T09:06:36;19.90;99.90
30097;DHT22;16915;51.466;3.610;2023-07-29T09:09:03;19.70;99.90
30097;DHT22;16915;51.466;3.610;2023-07-29T09:11:29;19.60;99.90
30097;DHT22;16915;51.466;3.610;2023-07-29T09:13:55;19.50;99.90
30097;DHT22;16915;51.466;3.610;2023-07-29T09:16:21;19.30;99.90
30097;DHT22;16915;51.466;3.610;2023-07-29T09:18:50;19.20;99.90
30097;DHT22;16915;51.466;3.610;2023-07-29T09:21:24;19.00;99.90
30097;DHT22;16915;51.466;3.610;2023-07-29T09:23:54;18.80;99.90
30097;DHT22;16915;51.466;3.610;2023-07-29T09:26:27;18.70;99.90
30097;DHT22;16915;51.466;3.610;2023-07-29T09:28:57;18.60;99.90
30097;DHT22;16915;51.466;3.610;2023-07-29T09:31:25;18.40;99.90
30097;DHT22;16915;51.466;3.610;2023-07-29T09:33:56;18.40;99.90
30097;DHT22;16915;51.466;3.610;2023-07-29T09:36:23;18.30;99.90
30097;DHT22;16915;51.466;3.610;2023-07-29T09:38:52;18.20;99.90
30097;DHT22;16915;51.466;3.610;2023-07-29T09:41:19;18.20;99.90
30097;DHT22;16915;51.466;3.610;2023-07-29T09:43:44;18.10;99.90
30097;DHT22;16915;51.466;3.610;2023-07-29T09:46:10;18.00;99.90
30097;DHT22;16915;51.466;3.610;2023-07-29T09:48:36;17.90;99.90
30097;DHT22;16915;51.466;3.610;2023-07-29T09:51:15;17.90;99.90
30097;DHT22;16915;51.466;3.610;2023-07-29T09:53:45;17.90;99.90
30097;DHT22;16915;51.466;3.610;2023-07-29T09:56:12;17.90;99.90
30097;DHT22;16915;51.466;3.610;2023-07-29T09:58:38;17.90;99.90
30097;DHT22;16915;51.466;3.610;2023-07-29T10:01:05;18.00;99.90
30097;DHT22;16915;51.466;3.610;2023-07-29T10:03:32;18.00;99.90
30097;DHT22;16915;51.466;3.610;2023-07-29T10:06:01;18.10;99.90
30097;DHT22;16915;51.466;3.610;2023-07-29T10:08:29;18.30;99.90
30097;DHT22;16915;51.466;3.610;2023-07-29T10:10:59;18.40;99.90
30097;DHT22;16915;51.466;3.610;2023-07-29T10:13:26;18.50;99.90
30097;DHT22;16915;51.466;3.610;2023-07-29T10:15:54;18.70;99.90
30097;DHT22;16915;51.466;3.610;2023-07-29T10:18:22;18.80;99.90
30097;DHT22;16915;51.466;3.610;2023-07-29T10:20:50;19.00;99.90
30097;DHT22;16915;51.466;3.610;2023-07-29T10:23:18;19.00;99.90
30097;DHT22;16915;51.466;3.610;2023-07-29T10:25:47;19.10;99.90
30097;DHT22;16915;51.466;3.610;2023-07-29T10:28:15;19.30;99.90
30097;DHT22;16915;51.466;3.610;2023-07-29T10:30:42;19.40;99.90
30097;DHT22;16915;51.466;3.610;2023-07-29T10:33:08;19.50;99.90
30097;DHT22;16915;51.466;3.610;2023-07-29T10:35:36;19.60;99.90
30097;DHT22;16915;51.466;3.610;2023-07-29T10:38:03;19.70;99.90
30097;DHT22;16915;51.466;3.610;2023-07-29T10:43:40;19.70;99.90
30097;DHT22;16915;51.466;3.610;2023-07-29T10:48:51;19.90;99.90
30097;DHT22;16915;51.466;3.610;2023-07-29T10:51:30;19.90;99.90
30097;DHT22;16915;51.466;3.610;2023-07-29T10:54:12;20.30;99.90
30097;DHT22;16915;51.466;3.610;2023-07-29T10:56:51;20.50;99.90
30097;DHT22;16915;51.466;3.610;2023-07-29T11:01:51;21.00;99.90
30097;DHT22;16915;51.466;3.610;2023-07-29T11:12:36;21.70;99.90
30097;DHT22;16915;51.466;3.610;2023-07-29T11:17:40;21.50;99.90
30097;DHT22;16915;51.466;3.610;2023-07-29T11:20:06;21.50;99.90
30097;DHT22;16915;51.466;3.610;2023-07-29T11:22:36;22.00;99.90
30097;DHT22;16915;51.466;3.610;2023-07-29T11:25:02;22.50;99.90
30097;DHT22;16915;51.466;3.610;2023-07-29T11:27:28;22.90;99.90
30097;DHT22;16915;51.466;3.610;2023-07-29T11:30:01;23.10;99.90
30097;DHT22;16915;51.466;3.610;2023-07-29T11:32:28;23.30;99.90
30097;DHT22;16915;51.466;3.610;2023-07-29T11:34:54;23.70;99.90
30097;DHT22;16915;51.466;3.610;2023-07-29T11:37:19;24.30;99.90
30097;DHT22;16915;51.466;3.610;2023-07-29T11:39:47;25.00;99.90
30097;DHT22;16915;51.466;3.610;2023-07-29T11:42:14;25.30;99.90
30097;DHT22;16915;51.466;3.610;2023-07-29T11:44:40;25.40;99.90
30097;DHT22;16915;51.466;3.610;2023-07-29T11:47:10;25.70;99.90
30097;DHT22;16915;51.466;3.610;2023-07-29T11:49:39;25.70;99.90
30097;DHT22;16915;51.466;3.610;2023-07-29T11:52:07;25.40;99.90
30097;DHT22;16915;51.466;3.610;2023-07-29T11:54:35;25.30;99.90
30097;DHT22;16915;51.466;3.610;2023-07-29T11:57:01;25.80;99.90
30097;DHT22;16915;51.466;3.610;2023-07-29T11:59:27;26.00;99.90
30097;DHT22;16915;51.466;3.610;2023-07-29T12:01:54;26.30;99.90
30097;DHT22;16915;51.466;3.610;2023-07-29T12:04:20;27.10;99.90
30097;DHT22;16915;51.466;3.610;2023-07-29T12:06:46;27.60;99.90
30097;DHT22;16915;51.466;3.610;2023-07-29T12:09:12;28.50;99.90
30097;DHT22;16915;51.466;3.610;2023-07-29T12:11:39;29.00;99.90
30097;DHT22;16915;51.466;3.610;2023-07-29T12:14:07;29.10;99.90
30097;DHT22;16915;51.466;3.610;2023-07-29T12:16:41;29.60;99.90
30097;DHT22;16915;51.466;3.610;2023-07-29T12:19:06;29.70;99.90
30097;DHT22;16915;51.466;3.610;2023-07-29T12:21:32;29.30;99.90
30097;DHT22;16915;51.466;3.610;2023-07-29T12:23:58;29.20;99.90
30097;DHT22;16915;51.466;3.610;2023-07-29T12:26:28;29.70;99.90
30097;DHT22;16915;51.466;3.610;2023-07-29T12:28:53;30.10;99.90
30097;DHT22;16915;51.466;3.610;2023-07-29T12:31:19;30.40;99.90
30097;DHT22;16915;51.466;3.610;2023-07-29T12:33:44;30.70;99.90
30097;DHT22;16915;51.466;3.610;2023-07-29T12:36:10;30.50;99.90
30097;DHT22;16915;51.466;3.610;2023-07-29T12:38:36;30.00;99.90
30097;DHT22;16915;51.466;3.610;2023-07-29T12:41:01;29.50;99.90
30097;DHT22;16915;51.466;3.610;2023-07-29T12:43:27;29.30;99.90
30097;DHT22;16915;51.466;3.610;2023-07-29T12:45:53;28.80;99.90
30097;DHT22;16915;51.466;3.610;2023-07-29T12:48:18;28.30;99.90
30097;DHT22;16915;51.466;3.610;2023-07-29T12:50:44;27.80;99.90
30097;DHT22;16915;51.466;3.610;2023-07-29T12:53:10;28.00;99.90
30097;DHT22;16915;51.466;3.610;2023-07-29T12:55:36;27.40;99.90
30097;DHT22;16915;51.466;3.610;2023-07-29T12:58:02;27.20;99.90
30097;DHT22;16915;51.466;3.610;2023-07-29T13:00:28;27.00;99.90
30097;DHT22;16915;51.466;3.610;2023-07-29T13:02:54;27.30;99.90
30097;DHT22;16915;51.466;3.610;2023-07-29T13:05:19;27.30;99.90
30097;DHT22;16915;51.466;3.610;2023-07-29T13:07:45;27.00;99.90
30097;DHT22;16915;51.466;3.610;2023-07-29T13:10:11;26.30;99.90
30097;DHT22;16915;51.466;3.610;2023-07-29T13:12:36;25.90;99.90
30097;DHT22;16915;51.466;3.610;2023-07-29T13:15:02;25.40;99.90
30097;DHT22;16915;51.466;3.610;2023-07-29T13:17:28;25.00;99.90
30097;DHT22;16915;51.466;3.610;2023-07-29T13:19:53;24.50;99.90
30097;DHT22;16915;51.466;3.610;2023-07-29T13:22:20;24.50;99.90
30097;DHT22;16915;51.466;3.610;2023-07-29T13:24:46;24.20;99.90
30097;DHT22;16915;51.466;3.610;2023-07-29T13:27:11;23.90;99.90
30097;DHT22;16915;51.466;3.610;2023-07-29T13:29:37;24.10;99.90
30097;DHT22;16915;51.466;3.610;2023-07-29T13:32:03;24.30;99.90
30097;DHT22;16915;51.466;3.610;2023-07-29T13:34:28;24.70;99.90
30097;DHT22;16915;51.466;3.610;2023-07-29T13:36:54;25.10;99.90
30097;DHT22;16915;51.466;3.610;2023-07-29T13:39:19;26.00;99.90
30097;DHT22;16915;51.466;3.610;2023-07-29T13:41:45;26.90;99.90
30097;DHT22;16915;51.466;3.610;2023-07-29T13:44:11;28.00;99.90
30097;DHT22;16915;51.466;3.610;2023-07-29T13:46:36;28.30;99.90
30097;DHT22;16915;51.466;3.610;2023-07-29T13:49:02;28.60;99.90
30097;DHT22;16915;51.466;3.610;2023-07-29T13:51:28;27.90;99.90
30097;DHT22;16915;51.466;3.610;2023-07-29T13:53:54;28.00;99.90
30097;DHT22;16915;51.466;3.610;2023-07-29T13:56:21;28.40;99.90
30097;DHT22;16915;51.466;3.610;2023-07-29T13:58:47;29.30;99.90
30097;DHT22;16915;51.466;3.610;2023-07-29T14:01:12;29.30;99.90
30097;DHT22;16915;51.466;3.610;2023-07-29T14:03:38;28.40;99.90
30097;DHT22;16915;51.466;3.610;2023-07-29T14:06:03;27.20;99.90
30097;DHT22;16915;51.466;3.610;2023-07-29T14:08:29;26.40;99.90
30097;DHT22;16915;51.466;3.610;2023-07-29T14:10:55;25.80;99.90
30097;DHT22;16915;51.466;3.610;2023-07-29T14:13:20;25.30;99.90
30097;DHT22;16915;51.466;3.610;2023-07-29T14:15:46;25.30;99.90
30097;DHT22;16915;51.466;3.610;2023-07-29T14:18:11;26.00;99.90
30097;DHT22;16915;51.466;3.610;2023-07-29T14:20:37;26.40;99.90
30097;DHT22;16915;51.466;3.610;2023-07-29T14:23:03;26.20;99.90
30097;DHT22;16915;51.466;3.610;2023-07-29T14:25:28;26.00;99.90
30097;DHT22;16915;51.466;3.610;2023-07-29T14:27:55;26.00;99.90
30097;DHT22;16915;51.466;3.610;2023-07-29T14:30:20;26.00;99.90
30097;DHT22;16915;51.466;3.610;2023-07-29T14:32:46;26.50;99.90
30097;DHT22;16915;51.466;3.610;2023-07-29T14:35:12;27.90;99.90
30097;DHT22;16915;51.466;3.610;2023-07-29T14:37:38;28.60;99.90
30097;DHT22;16915;51.466;3.610;2023-07-29T14:40:04;29.00;99.90
30097;DHT22;16915;51.466;3.610;2023-07-29T14:42:30;29.20;99.90
30097;DHT22;16915;51.466;3.610;2023-07-29T14:44:55;29.50;99.90
30097;DHT22;16915;51.466;3.610;2023-07-29T14:47:21;29.80;99.90
30097;DHT22;16915;51.466;3.610;2023-07-29T14:49:47;30.10;99.90
30097;DHT22;16915;51.466;3.610;2023-07-29T14:52:12;30.40;99.90
30097;DHT22;16915;51.466;3.610;2023-07-29T14:54:38;30.80;99.90
30097;DHT22;16915;51.466;3.610;2023-07-29T14:57:06;31.10;99.90
30097;DHT22;16915;51.466;3.610;2023-07-29T14:59:32;31.10;99.90
30097;DHT22;16915;51.466;3.610;2023-07-29T15:01:58;31.10;99.90
30097;DHT22;16915;51.466;3.610;2023-07-29T15:04:24;31.80;99.90
30097;DHT22;16915;51.466;3.610;2023-07-29T15:06:50;31.80;99.90
30097;DHT22;16915;51.466;3.610;2023-07-29T15:09:15;31.90;99.90
30097;DHT22;16915;51.466;3.610;2023-07-29T15:11:41;32.00;99.90
30097;DHT22;16915;51.466;3.610;2023-07-29T15:14:06;32.30;99.80
30097;DHT22;16915;51.466;3.610;2023-07-29T15:16:33;32.10;99.30
30097;DHT22;16915;51.466;3.610;2023-07-29T15:19:02;32.10;99.50
30097;DHT22;16915;51.466;3.610;2023-07-29T15:21:27;31.40;99.90
30097;DHT22;16915;51.466;3.610;2023-07-29T15:23:53;30.90;99.90
30097;DHT22;16915;51.466;3.610;2023-07-29T15:26:18;30.70;99.90
30097;DHT22;16915;51.466;3.610;2023-07-29T15:28:44;31.10;99.90
30097;DHT22;16915;51.466;3.610;2023-07-29T15:31:14;31.50;99.90
30097;DHT22;16915;51.466;3.610;2023-07-29T15:33:40;31.70;99.90
30097;DHT22;16915;51.466;3.610;2023-07-29T15:36:06;31.10;99.40
30097;DHT22;16915;51.466;3.610;2023-07-29T15:38:31;30.90;99.70
30097;DHT22;16915;51.466;3.610;2023-07-29T15:40:57;30.50;99.90
30097;DHT22;16915;51.466;3.610;2023-07-29T15:43:23;30.40;99.90
30097;DHT22;16915;51.466;3.610;2023-07-29T15:45:49;30.80;99.90
30097;DHT22;16915;51.466;3.610;2023-07-29T15:48:14;30.60;99.90
30097;DHT22;16915;51.466;3.610;2023-07-29T15:50:41;30.50;99.90